Time;durP1;ratioP1;P1;durP2;ratioP2;P2;SDS_P1;SDS_P2;PMS_P1;PMS_P2;Temp;Humidity;BMP_temperature;BMP_pressure;BME280_temperature;BME280_humidity;BME280_pressure;Samples;Min_cycle;Max_cycle;Signal;HPM_P1;HPM_P2
2022/12/10 00:01:40;;;;;;;58.50;26.83;;;0.60;99.90;;;;;;5062787;28;20186;-75
2022/12/10 00:04:05;;;;;;;62.13;28.40;;;0.60;99.90;;;;;;5061265;28;20191;-74
2022/12/10 00:06:34;;;;;;;64.35;30.08;;;0.60;99.90;;;;;;5085996;28;20554;-74
2022/12/10 00:09:05;;;;;;;64.32;30.15;;;0.60;99.90;;;;;;5058834;28;20186;-75
2022/12/10 00:11:31;;;;;;;60.43;28.90;;;0.60;99.90;;;;;;5068068;28;20481;-75
2022/12/10 00:13:57;;;;;;;66.53;31.52;;;0.60;99.90;;;;;;5056953;28;20213;-79
2022/12/10 00:16:26;;;;;;;69.13;29.35;;;0.50;99.90;;;;;;5071719;28;20210;-76
2022/12/10 00:18:53;;;;;;;64.22;28.48;;;0.50;99.90;;;;;;5069418;28;20179;-75
2022/12/10 00:21:22;;;;;;;58.97;27.92;;;0.50;99.90;;;;;;5068860;28;20240;-75
2022/12/10 00:23:49;;;;;;;65.93;28.95;;;0.50;99.90;;;;;;5069212;28;20248;-74
2022/12/10 00:26:17;;;;;;;61.88;27.35;;;0.50;99.90;;;;;;5069016;28;20187;-79
2022/12/10 00:28:44;;;;;;;58.90;25.52;;;0.50;99.90;;;;;;5067535;28;20626;-75
2022/12/10 00:31:19;;;;;;;66.95;27.60;;;0.50;99.90;;;;;;5070924;28;20228;-75
2022/12/10 00:33:46;;;;;;;62.17;25.52;;;0.50;99.90;;;;;;5067503;28;20545;-74
2022/12/10 00:36:20;;;;;;;62.17;27.65;;;0.50;99.90;;;;;;5072876;28;20189;-74
2022/12/10 00:38:47;;;;;;;63.92;26.75;;;0.50;99.90;;;;;;5081465;28;20175;-75
2022/12/10 00:41:13;;;;;;;67.88;27.90;;;0.40;99.90;;;;;;5052865;28;20195;-75
2022/12/10 00:43:39;;;;;;;69.00;28.58;;;0.40;99.90;;;;;;5078212;28;20236;-81
2022/12/10 00:46:06;;;;;;;67.15;28.35;;;0.40;99.90;;;;;;5068706;28;20190;-75
2022/12/10 00:48:31;;;;;;;65.80;28.83;;;0.40;99.90;;;;;;5068500;28;20182;-74
2022/12/10 00:51:02;;;;;;;64.15;27.20;;;0.40;99.90;;;;;;5071307;28;20650;-76
2022/12/10 00:53:30;;;;;;;67.22;29.17;;;0.40;99.90;;;;;;5068323;28;20210;-74
2022/12/10 00:55:57;;;;;;;70.10;29.63;;;0.40;99.90;;;;;;5088404;28;20186;-74
2022/12/10 00:58:23;;;;;;;71.82;32.67;;;0.40;99.90;;;;;;5069487;28;20254;-75
2022/12/10 01:00:49;;;;;;;68.53;29.80;;;0.40;99.90;;;;;;5057703;28;20718;-75
2022/12/10 01:03:16;;;;;;;68.70;29.00;;;0.40;99.90;;;;;;5050171;28;20176;-74
2022/12/10 01:05:44;;;;;;;67.05;29.30;;;0.40;99.90;;;;;;5059364;28;20202;-74
2022/12/10 01:08:10;;;;;;;69.60;29.50;;;0.40;99.90;;;;;;5070494;28;20210;-80
2022/12/10 01:10:37;;;;;;;76.78;32.08;;;0.40;99.90;;;;;;5070334;28;20206;-75
2022/12/10 01:13:03;;;;;;;64.50;27.90;;;0.40;99.90;;;;;;5071541;28;20193;-74
2022/12/10 01:15:29;;;;;;;75.25;30.00;;;0.40;99.90;;;;;;5061236;28;20171;-79
2022/12/10 01:17:56;;;;;;;68.10;28.57;;;0.40;99.90;;;;;;5064782;28;20221;-74
2022/12/10 01:20:22;;;;;;;72.05;29.90;;;0.40;99.90;;;;;;5060654;28;20655;-75
2022/12/10 01:22:48;;;;;;;72.80;31.23;;;0.40;99.90;;;;;;5071408;28;20217;-75
2022/12/10 01:25:13;;;;;;;65.30;29.02;;;0.40;99.90;;;;;;5064180;28;20187;-80
2022/12/10 01:27:39;;;;;;;70.53;31.53;;;0.30;99.90;;;;;;5061487;28;20187;-75
2022/12/10 01:30:05;;;;;;;67.83;30.20;;;0.30;99.90;;;;;;5068922;28;20206;-74
2022/12/10 01:32:31;;;;;;;71.50;31.50;;;0.30;99.90;;;;;;5068932;28;20657;-74
2022/12/10 01:34:57;;;;;;;70.10;30.37;;;0.30;99.90;;;;;;5069789;28;20190;-77
2022/12/10 01:37:23;;;;;;;70.63;30.65;;;0.30;99.90;;;;;;5059055;28;20201;-74
2022/12/10 01:39:48;;;;;;;68.78;30.95;;;0.30;99.90;;;;;;5073738;28;20197;-74
2022/12/10 01:42:14;;;;;;;65.13;30.08;;;0.30;99.90;;;;;;5063783;28;20194;-75
2022/12/10 01:44:43;;;;;;;70.47;30.27;;;0.30;99.90;;;;;;5071976;28;20634;-74
2022/12/10 01:47:09;;;;;;;75.50;31.05;;;0.30;99.90;;;;;;5059394;28;20194;-75
2022/12/10 01:49:40;;;;;;;81.07;34.00;;;0.30;99.90;;;;;;5069584;28;20193;-75
2022/12/10 01:52:10;;;;;;;71.53;30.90;;;0.30;99.90;;;;;;5067945;28;20304;-75
2022/12/10 01:54:39;;;;;;;69.18;31.02;;;0.30;99.90;;;;;;5063139;28;20736;-75
2022/12/10 01:57:27;;;;;;;73.20;30.35;;;0.30;99.90;;;;;;5074627;28;20537;-74
2022/12/10 01:59:57;;;;;;;69.80;30.77;;;0.20;99.90;;;;;;5072707;28;20226;-74
2022/12/10 02:02:34;;;;;;;80.43;38.13;;;0.20;99.90;;;;;;5074252;28;20183;-74
2022/12/10 02:05:36;;;;;;;70.73;30.17;;;0.20;99.90;;;;;;5080329;28;20178;-76
2022/12/10 02:08:20;;;;;;;72.87;30.70;;;0.20;99.90;;;;;;5077194;28;20285;-75
2022/12/10 02:11:24;;;;;;;71.33;30.83;;;0.20;99.90;;;;;;5077796;28;20658;-74
2022/12/10 02:14:05;;;;;;;76.83;30.47;;;0.20;99.90;;;;;;5070929;28;20276;-76
2022/12/10 02:16:56;;;;;;;72.33;30.13;;;0.20;99.90;;;;;;5091252;28;20175;-75
2022/12/10 02:19:56;;;;;;;75.00;31.97;;;0.10;99.90;;;;;;5067266;28;20279;-75
2022/12/10 02:22:24;;;;;;;71.40;30.30;;;0.20;99.90;;;;;;5024672;28;20222;-78
2022/12/10 02:24:52;;;;;;;73.87;31.70;;;0.20;99.90;;;;;;5066570;28;20178;-74
2022/12/10 02:27:46;;;;;;;81.33;33.13;;;0.10;99.90;;;;;;5074073;28;20182;-75
2022/12/10 02:30:12;;;;;;;69.30;28.60;;;0.10;99.90;;;;;;5068601;28;20198;-76
2022/12/10 02:32:41;;;;;;;80.20;31.37;;;0.10;99.90;;;;;;5063738;28;20197;-74
2022/12/10 02:35:24;;;;;;;74.93;32.83;;;0.10;99.90;;;;;;5071697;28;20181;-74
2022/12/10 02:37:55;;;;;;;74.13;30.67;;;0.10;99.90;;;;;;5070409;28;20648;-74
2022/12/10 02:40:26;;;;;;;75.77;32.83;;;0.10;99.90;;;;;;5063965;28;20249;-79
2022/12/10 02:42:53;;;;;;;77.40;31.90;;;0.10;99.90;;;;;;5074193;28;20204;-75
2022/12/10 02:45:23;;;;;;;76.00;32.37;;;0.10;99.90;;;;;;5070370;28;20190;-74
2022/12/10 02:47:53;;;;;;;75.83;32.10;;;0.10;99.90;;;;;;5073795;28;20336;-74
2022/12/10 02:50:21;;;;;;;77.80;32.47;;;0.10;99.90;;;;;;5070878;28;20666;-75
2022/12/10 02:52:49;;;;;;;87.97;35.93;;;0.10;99.90;;;;;;5060280;28;20239;-76
2022/12/10 02:55:15;;;;;;;89.87;39.97;;;0.20;99.90;;;;;;5087111;28;20399;-75
2022/12/10 02:58:19;;;;;;;86.35;36.38;;;0.20;99.90;;;;;;5073548;28;20244;-74
2022/12/10 03:00:56;;;;;;;80.93;34.73;;;0.10;99.90;;;;;;5070407;28;20179;-74
2022/12/10 03:03:38;;;;;;;84.80;36.47;;;0.20;99.90;;;;;;5064841;28;20206;-75
2022/12/10 03:06:12;;;;;;;88.03;35.63;;;0.20;99.90;;;;;;5063243;28;20244;-74
2022/12/10 03:08:48;;;;;;;79.13;34.33;;;0.10;99.90;;;;;;5059040;28;20186;-75
2022/12/10 03:11:17;;;;;;;79.83;33.47;;;0.10;99.90;;;;;;5066953;28;20271;-74
2022/12/10 03:13:51;;;;;;;76.97;32.22;;;0.10;99.90;;;;;;5072543;28;20202;-75
2022/12/10 03:16:19;;;;;;;70.23;30.90;;;0.10;99.90;;;;;;5062732;28;20228;-75
2022/12/10 03:18:49;;;;;;;71.93;32.10;;;0.10;99.90;;;;;;5066405;28;20654;-75
2022/12/10 03:21:16;;;;;;;79.93;33.20;;;0.10;99.90;;;;;;5062964;28;20178;-74
2022/12/10 03:23:45;;;;;;;73.80;30.67;;;0.20;99.90;;;;;;5072607;28;20711;-74
2022/12/10 03:26:11;;;;;;;76.03;30.88;;;0.10;99.90;;;;;;5065724;28;20214;-75
2022/12/10 03:28:45;;;;;;;72.68;32.28;;;0.10;99.90;;;;;;5056282;28;20222;-74
2022/12/10 03:31:13;;;;;;;79.90;31.17;;;0.10;99.90;;;;;;5060240;28;20202;-77
2022/12/10 03:33:39;;;;;;;74.78;30.30;;;0.10;99.90;;;;;;5065286;28;20201;-74
2022/12/10 03:36:07;;;;;;;72.10;32.03;;;0.10;99.90;;;;;;5071913;28;20740;-75
2022/12/10 03:38:35;;;;;;;84.50;32.88;;;0.10;99.90;;;;;;5070195;28;20182;-74
2022/12/10 03:41:00;;;;;;;80.43;33.60;;;0.10;99.90;;;;;;5066883;28;20191;-76
2022/12/10 03:43:26;;;;;;;80.37;34.47;;;0.10;99.90;;;;;;5060005;28;20188;-74
2022/12/10 03:45:52;;;;;;;83.17;34.97;;;0.10;99.90;;;;;;5073964;28;20187;-74
2022/12/10 03:48:17;;;;;;;82.37;35.40;;;0.00;99.90;;;;;;5085414;28;20175;-75
2022/12/10 03:50:43;;;;;;;86.15;36.95;;;0.00;99.90;;;;;;5070572;28;20214;-75
2022/12/10 03:53:09;;;;;;;79.30;35.13;;;0.00;99.90;;;;;;5071804;28;20556;-81
2022/12/10 03:55:34;;;;;;;86.00;36.77;;;0.00;99.90;;;;;;5070893;28;20312;-74
2022/12/10 03:58:00;;;;;;;73.53;34.30;;;0.00;99.90;;;;;;5070435;28;20611;-74
2022/12/10 04:00:26;;;;;;;76.93;33.77;;;0.00;99.90;;;;;;5059922;28;20187;-75
2022/12/10 04:02:52;;;;;;;81.00;35.10;;;0.00;99.90;;;;;;5070629;28;20578;-74
2022/12/10 04:05:17;;;;;;;80.77;36.07;;;0.00;99.90;;;;;;5071356;28;20186;-74
2022/12/10 04:07:43;;;;;;;82.70;38.37;;;0.00;99.90;;;;;;5093707;28;20178;-75
2022/12/10 04:10:09;;;;;;;82.40;36.47;;;0.00;99.90;;;;;;5069454;28;20206;-74
2022/12/10 04:12:35;;;;;;;92.03;40.57;;;0.00;99.90;;;;;;5056970;28;20743;-75
2022/12/10 04:17:44;;;;;;;73.40;29.63;;;0.00;99.90;;;;;;5055964;28;20187;-75
2022/12/10 04:26:51;;;;;;;79.80;33.50;;;0.00;99.90;;;;;;5065763;28;20183;-75
2022/12/10 04:28:33;;;;;;;82.27;34.17;;;-0.10;99.90;;;;;;5046515;28;20199;-74
2022/12/10 04:30:58;;;;;;;82.37;33.40;;;-0.10;99.90;;;;;;5073084;28;20205;-75
2022/12/10 04:33:24;;;;;;;80.57;33.33;;;-0.10;99.90;;;;;;5064329;28;20191;-73
2022/12/10 04:35:50;;;;;;;83.40;34.07;;;-0.10;99.90;;;;;;5063026;28;20202;-74
2022/12/10 04:38:15;;;;;;;81.23;33.33;;;-0.10;99.90;;;;;;5072060;28;20609;-74
2022/12/10 04:40:41;;;;;;;84.47;34.50;;;-0.10;99.90;;;;;;5069682;28;20197;-74
2022/12/10 04:43:07;;;;;;;76.67;33.30;;;-0.20;99.90;;;;;;5068039;28;20187;-79
2022/12/10 04:45:34;;;;;;;85.53;34.70;;;-0.20;99.90;;;;;;5066186;28;20618;-74
2022/12/10 04:48:00;;;;;;;75.77;30.97;;;-0.20;99.90;;;;;;5070571;28;20174;-74
2022/12/10 04:50:25;;;;;;;78.20;34.80;;;-0.20;99.90;;;;;;5071160;28;20700;-76
2022/12/10 04:52:51;;;;;;;77.03;34.20;;;-0.20;99.90;;;;;;5070845;28;20186;-74
2022/12/10 04:55:17;;;;;;;84.43;34.13;;;-0.20;99.90;;;;;;5062444;28;20174;-74
2022/12/10 04:57:42;;;;;;;82.37;33.50;;;-0.20;99.90;;;;;;5070959;28;20648;-78
2022/12/10 05:00:09;;;;;;;93.17;35.23;;;-0.30;99.90;;;;;;5070407;28;20246;-74
2022/12/10 05:02:34;;;;;;;88.93;34.93;;;-0.30;99.90;;;;;;5072499;28;20210;-74
2022/12/10 05:05:00;;;;;;;84.80;34.63;;;-0.20;99.90;;;;;;5060644;28;20217;-76
2022/12/10 05:07:26;;;;;;;83.57;33.70;;;-0.20;99.90;;;;;;5068143;28;20630;-74
2022/12/10 05:09:51;;;;;;;81.30;32.60;;;-0.20;99.90;;;;;;5069625;28;20178;-74
2022/12/10 05:12:17;;;;;;;104.40;40.83;;;-0.20;99.90;;;;;;5071675;28;20186;-74
2022/12/10 05:14:43;;;;;;;88.80;35.17;;;-0.20;99.90;;;;;;5075208;28;20182;-74
2022/12/10 05:17:08;;;;;;;77.70;32.90;;;-0.20;99.90;;;;;;5067337;28;20639;-74
2022/12/10 05:19:34;;;;;;;90.20;34.90;;;-0.10;99.90;;;;;;5064799;28;20256;-78
2022/12/10 05:24:44;;;;;;;89.03;33.08;;;-0.10;99.90;;;;;;5075378;28;20542;-74
2022/12/10 05:27:10;;;;;;;83.43;33.78;;;-0.10;99.90;;;;;;5076375;28;20174;-74
2022/12/10 05:29:36;;;;;;;89.23;32.13;;;-0.10;99.90;;;;;;5069024;28;20179;-78
2022/12/10 05:32:04;;;;;;;87.67;33.40;;;-0.10;99.90;;;;;;5067662;28;20623;-75
2022/12/10 05:34:29;;;;;;;99.28;35.70;;;-0.10;99.90;;;;;;5074902;28;20247;-74
2022/12/10 05:36:55;;;;;;;92.32;35.50;;;-0.10;99.90;;;;;;5071296;28;20188;-75
2022/12/10 05:39:21;;;;;;;84.57;31.30;;;-0.10;99.90;;;;;;5061497;28;20707;-81
2022/12/10 05:41:46;;;;;;;85.93;34.08;;;-0.10;99.90;;;;;;5064445;28;20197;-74
2022/12/10 05:44:12;;;;;;;81.87;32.33;;;-0.10;99.90;;;;;;5073085;28;20189;-74
2022/12/10 05:46:38;;;;;;;98.10;35.03;;;-0.10;99.90;;;;;;5074911;28;20175;-74
2022/12/10 05:49:05;;;;;;;77.30;25.60;;;-0.10;99.90;;;;;;5074097;28;20170;-74
2022/12/10 05:51:34;;;;;;;90.50;33.90;;;-0.20;99.90;;;;;;5086462;28;20634;-74
2022/12/10 05:54:03;;;;;;;104.95;36.33;;;-0.20;99.90;;;;;;5067224;28;20190;-74
2022/12/10 05:56:29;;;;;;;95.10;37.30;;;-0.20;99.90;;;;;;5075626;28;20183;-73
2022/12/10 05:58:59;;;;;;;86.75;33.25;;;-0.20;99.90;;;;;;5070555;28;20314;-74
2022/12/10 06:01:27;;;;;;;100.60;31.98;;;-0.10;99.90;;;;;;5063053;28;20715;-78
2022/12/10 06:03:53;;;;;;;100.53;35.23;;;-0.20;99.90;;;;;;5059260;28;20178;-80
2022/12/10 06:06:24;;;;;;;87.90;33.85;;;-0.20;99.90;;;;;;5058441;28;20191;-74
2022/12/10 06:08:51;;;;;;;98.30;35.60;;;-0.20;99.90;;;;;;5064462;28;20182;-73
2022/12/10 06:11:17;;;;;;;109.10;35.60;;;-0.20;99.90;;;;;;5069286;28;20207;-73
2022/12/10 06:13:42;;;;;;;100.93;37.90;;;-0.10;99.90;;;;;;5058614;28;20178;-74
2022/12/10 06:16:10;;;;;;;115.00;41.13;;;-0.10;99.90;;;;;;5068175;28;20252;-75
2022/12/10 06:18:37;;;;;;;108.20;36.17;;;-0.10;99.90;;;;;;5066126;28;20183;-74
2022/12/10 06:21:07;;;;;;;87.43;31.87;;;-0.10;99.90;;;;;;5073037;28;20638;-73
2022/12/10 06:23:37;;;;;;;95.03;31.77;;;-0.10;99.90;;;;;;5071382;28;20224;-73
2022/12/10 06:26:15;;;;;;;105.70;35.47;;;-0.10;99.90;;;;;;5074579;28;20634;-75
2022/12/10 06:28:41;;;;;;;90.43;33.30;;;-0.10;99.90;;;;;;5068339;28;20537;-75
2022/12/10 06:31:07;;;;;;;89.50;31.85;;;-0.10;99.90;;;;;;5072242;28;20217;-75
2022/12/10 06:33:33;;;;;;;107.93;34.47;;;-0.10;99.90;;;;;;5071120;28;20262;-75
2022/12/10 06:35:59;;;;;;;107.60;34.33;;;-0.10;99.90;;;;;;5071237;28;20274;-75
2022/12/10 06:38:25;;;;;;;112.13;32.43;;;-0.10;99.90;;;;;;5068189;28;20193;-75
2022/12/10 06:40:52;;;;;;;114.45;33.22;;;-0.10;99.90;;;;;;5058241;28;20191;-75
2022/12/10 06:43:18;;;;;;;91.90;31.13;;;-0.10;99.90;;;;;;5072561;28;20315;-73
2022/12/10 06:45:44;;;;;;;89.37;33.27;;;-0.10;99.90;;;;;;5070418;28;20230;-74
2022/12/10 06:48:10;;;;;;;109.30;40.53;;;-0.10;99.90;;;;;;5058014;28;20602;-81
2022/12/10 06:50:36;;;;;;;90.37;33.70;;;-0.10;99.90;;;;;;5058806;28;22156;-75
2022/12/10 06:53:02;;;;;;;101.23;36.73;;;-0.10;99.90;;;;;;5074786;28;20178;-75
2022/12/10 06:55:28;;;;;;;109.60;35.67;;;-0.10;99.90;;;;;;5073026;28;20214;-75
2022/12/10 06:57:54;;;;;;;92.20;33.63;;;-0.10;99.90;;;;;;5074432;28;20260;-75
2022/12/10 07:00:20;;;;;;;104.23;33.93;;;-0.10;99.90;;;;;;5059749;28;20201;-75
2022/12/10 07:02:47;;;;;;;140.37;35.63;;;-0.10;99.90;;;;;;5057080;28;20263;-75
2022/12/10 07:05:13;;;;;;;113.53;37.03;;;-0.20;99.90;;;;;;5057360;28;20197;-75
2022/12/10 07:07:39;;;;;;;144.67;41.53;;;-0.10;99.90;;;;;;5068500;28;20548;-74
2022/12/10 07:10:05;;;;;;;119.13;39.77;;;-0.10;99.90;;;;;;5072317;28;20297;-73
2022/12/10 07:12:31;;;;;;;127.03;39.13;;;-0.20;99.90;;;;;;5064170;28;20210;-75
2022/12/10 07:14:58;;;;;;;120.20;37.63;;;-0.20;99.90;;;;;;5061845;28;20191;-73
2022/12/10 07:17:23;;;;;;;384.43;39.37;;;-0.20;99.90;;;;;;5073799;28;20194;-74
2022/12/10 07:19:49;;;;;;;131.73;33.80;;;-0.20;99.90;;;;;;5068715;28;20183;-76
2022/12/10 07:22:15;;;;;;;123.27;34.83;;;-0.30;99.90;;;;;;5072164;28;20186;-74
2022/12/10 07:24:41;;;;;;;111.87;37.40;;;-0.40;99.90;;;;;;5067261;28;20299;-74
2022/12/10 07:27:07;;;;;;;137.87;32.17;;;-0.30;99.90;;;;;;5069514;28;20560;-74
2022/12/10 07:29:33;;;;;;;136.30;33.53;;;-0.40;99.90;;;;;;5062930;28;20272;-74
2022/12/10 07:31:58;;;;;;;107.80;37.37;;;-0.40;99.90;;;;;;5070069;28;20233;-75
2022/12/10 07:34:24;;;;;;;158.23;34.20;;;-0.40;99.90;;;;;;5068697;28;20650;-80
2022/12/10 07:36:50;;;;;;;188.47;35.50;;;-0.40;99.90;;;;;;5063226;28;20547;-80
2022/12/10 07:39:19;;;;;;;98.97;32.63;;;-0.50;99.90;;;;;;5060310;28;20228;-79
2022/12/10 07:41:47;;;;;;;105.17;35.60;;;-0.50;99.90;;;;;;5053391;28;20266;-74
2022/12/10 07:44:14;;;;;;;118.50;35.13;;;-0.50;99.90;;;;;;5063660;28;20205;-74
2022/12/10 07:46:40;;;;;;;128.20;36.47;;;-0.50;99.90;;;;;;5067078;28;20264;-73
2022/12/10 07:49:06;;;;;;;128.35;41.17;;;-0.50;99.90;;;;;;5058984;28;20182;-75
2022/12/10 07:51:31;;;;;;;99.47;32.93;;;-0.60;99.90;;;;;;5056845;28;20225;-74
2022/12/10 07:53:57;;;;;;;147.73;34.73;;;-0.50;99.90;;;;;;5067543;28;20183;-74
2022/12/10 07:56:24;;;;;;;136.30;31.07;;;-0.60;99.90;;;;;;5070664;28;20167;-74
2022/12/10 07:58:50;;;;;;;114.97;33.57;;;-0.60;99.90;;;;;;5067325;28;20210;-74
2022/12/10 08:01:18;;;;;;;162.40;33.77;;;-0.60;99.90;;;;;;5069277;28;20546;-74
2022/12/10 08:03:44;;;;;;;91.30;33.17;;;-0.60;99.90;;;;;;5065346;28;20228;-74
2022/12/10 08:06:15;;;;;;;113.50;31.10;;;-0.60;99.90;;;;;;5085930;28;20212;-78
2022/12/10 08:08:42;;;;;;;160.20;32.57;;;-0.70;99.90;;;;;;5070034;28;20178;-78
2022/12/10 08:11:08;;;;;;;144.63;32.03;;;-0.70;99.90;;;;;;5069165;28;20248;-75
2022/12/10 08:13:35;;;;;;;90.00;32.83;;;-0.60;99.90;;;;;;5085708;28;20194;-74
2022/12/10 08:16:06;;;;;;;93.72;33.83;;;-0.70;99.90;;;;;;5072114;28;20190;-74
2022/12/10 08:18:33;;;;;;;119.10;36.80;;;-0.70;99.90;;;;;;5068060;28;20186;-74
2022/12/10 08:21:03;;;;;;;114.67;33.03;;;-0.60;99.90;;;;;;5068542;28;20182;-74
2022/12/10 08:23:28;;;;;;;123.63;33.93;;;-0.70;99.90;;;;;;5069155;28;20976;-74
2022/12/10 08:25:55;;;;;;;107.87;35.57;;;-0.70;99.90;;;;;;5071921;28;20254;-74
2022/12/10 08:28:20;;;;;;;143.13;37.30;;;-0.70;99.90;;;;;;5069893;28;20193;-74
2022/12/10 08:30:47;;;;;;;110.17;28.87;;;-0.70;99.90;;;;;;5070425;28;20217;-77
2022/12/10 08:33:13;;;;;;;134.17;35.13;;;-0.70;99.90;;;;;;5056134;28;20194;-79
2022/12/10 08:35:39;;;;;;;101.07;31.23;;;-0.70;99.90;;;;;;5070699;28;20637;-74
2022/12/10 08:38:05;;;;;;;109.17;30.83;;;-0.70;99.90;;;;;;5071554;28;20191;-73
2022/12/10 08:40:31;;;;;;;104.70;32.87;;;-0.70;99.90;;;;;;5068086;28;20201;-73
2022/12/10 08:42:56;;;;;;;86.70;23.53;;;-0.70;99.90;;;;;;5066566;28;20655;-74
2022/12/10 08:45:22;;;;;;;90.60;29.10;;;-0.70;99.90;;;;;;5069914;28;20186;-74
2022/12/10 08:47:49;;;;;;;107.40;30.97;;;-0.70;99.90;;;;;;5069954;28;20212;-75
2022/12/10 08:50:14;;;;;;;93.00;30.43;;;-0.70;99.90;;;;;;5069566;28;20642;-73
2022/12/10 08:52:40;;;;;;;89.87;29.57;;;-0.70;99.90;;;;;;5071550;28;20338;-74
2022/12/10 08:55:07;;;;;;;98.83;31.90;;;-0.70;99.90;;;;;;5070755;28;20228;-74
2022/12/10 08:57:32;;;;;;;87.60;29.87;;;-0.70;99.90;;;;;;5071920;28;20187;-75
2022/12/10 08:59:58;;;;;;;97.33;30.97;;;-0.70;99.90;;;;;;5069883;28;20194;-75
2022/12/10 09:02:24;;;;;;;84.70;28.70;;;-0.70;99.90;;;;;;5070887;28;20182;-75
2022/12/10 09:04:50;;;;;;;120.70;29.20;;;-0.60;99.90;;;;;;5084439;28;20220;-74
2022/12/10 09:07:16;;;;;;;102.67;27.57;;;-0.60;99.90;;;;;;5071996;28;20209;-74
2022/12/10 09:09:42;;;;;;;84.37;30.10;;;-0.60;99.90;;;;;;5067570;28;20652;-74
2022/12/10 09:12:07;;;;;;;71.40;27.87;;;-0.60;99.90;;;;;;5071203;28;20202;-74
2022/12/10 09:14:33;;;;;;;83.60;29.37;;;-0.60;99.90;;;;;;5069557;28;20227;-75
2022/12/10 09:17:02;;;;;;;96.77;28.33;;;-0.60;99.90;;;;;;5070713;28;20609;-74
2022/12/10 09:19:28;;;;;;;74.93;28.50;;;-0.60;99.90;;;;;;5066019;28;20193;-74
2022/12/10 09:21:53;;;;;;;65.50;23.83;;;-0.70;99.90;;;;;;5065481;28;20269;-74
2022/12/10 09:24:19;;;;;;;78.20;26.20;;;-0.70;99.90;;;;;;5068166;28;20214;-74
2022/12/10 09:26:46;;;;;;;69.13;24.87;;;-0.70;99.90;;;;;;5070407;28;20187;-75
2022/12/10 09:29:13;;;;;;;81.30;23.77;;;-0.70;99.90;;;;;;5069468;28;20627;-75
2022/12/10 09:31:38;;;;;;;76.53;24.70;;;-0.70;99.90;;;;;;5071162;28;20214;-74
2022/12/10 09:34:04;;;;;;;93.63;23.30;;;-0.70;99.90;;;;;;5063671;28;20187;-75
2022/12/10 09:36:30;;;;;;;100.80;25.17;;;-0.70;99.90;;;;;;5061295;28;20181;-76
2022/12/10 09:38:55;;;;;;;82.20;26.30;;;-0.70;99.90;;;;;;5067941;28;20182;-75
2022/12/10 09:41:22;;;;;;;86.93;28.67;;;-0.80;99.90;;;;;;5077107;28;20201;-74
2022/12/10 09:44:10;;;;;;;77.43;23.83;;;-0.70;99.90;;;;;;5066026;28;20174;-76
2022/12/10 09:46:51;;;;;;;72.93;25.50;;;-0.70;99.90;;;;;;5057351;28;20337;-74
2022/12/10 09:49:46;;;;;;;90.97;26.93;;;-0.70;99.90;;;;;;5060384;28;20171;-75
2022/12/10 09:52:23;;;;;;;70.60;22.10;;;-0.70;99.90;;;;;;5059994;28;20203;-78
2022/12/10 09:54:59;;;;;;;75.57;27.60;;;-0.70;99.90;;;;;;5070661;28;20218;-74
2022/12/10 09:57:39;;;;;;;69.80;26.90;;;-0.70;99.90;;;;;;5072246;28;20167;-74
2022/12/10 10:00:18;;;;;;;76.03;29.23;;;-0.70;99.90;;;;;;5061607;28;21011;-77
2022/12/10 10:02:44;;;;;;;74.60;27.77;;;-0.70;99.90;;;;;;5057923;28;20668;-74
2022/12/10 10:05:13;;;;;;;72.40;26.97;;;-0.60;99.90;;;;;;5080491;28;20181;-74
2022/12/10 10:07:46;;;;;;;87.37;29.53;;;-0.60;99.90;;;;;;5089065;28;20613;-75
2022/12/10 10:10:24;;;;;;;72.10;26.80;;;-0.60;99.90;;;;;;5066912;28;20583;-77
2022/12/10 10:12:56;;;;;;;81.87;29.10;;;-0.60;99.90;;;;;;5074521;28;20175;-76
2022/12/10 10:15:31;;;;;;;90.67;30.03;;;-0.60;99.90;;;;;;5071223;28;20626;-76
2022/12/10 10:18:01;;;;;;;85.90;30.27;;;-0.60;99.90;;;;;;5071357;28;20182;-74
2022/12/10 10:20:27;;;;;;;100.40;30.70;;;-0.60;99.90;;;;;;5065829;28;20178;-74
2022/12/10 10:22:57;;;;;;;90.13;30.13;;;-0.50;99.90;;;;;;5073015;28;20563;-80
2022/12/10 10:25:23;;;;;;;73.40;26.03;;;-0.50;99.90;;;;;;5072524;28;20259;-75
2022/12/10 10:27:49;;;;;;;81.17;28.47;;;-0.40;99.90;;;;;;5072141;28;20178;-74
2022/12/10 10:30:17;;;;;;;90.33;31.10;;;-0.40;99.90;;;;;;5070231;28;20545;-81
2022/12/10 10:32:49;;;;;;;79.07;29.03;;;-0.40;99.90;;;;;;5063287;28;20191;-76
2022/12/10 10:35:44;;;;;;;78.87;29.87;;;-0.40;99.90;;;;;;5072098;28;20577;-75
2022/12/10 10:38:36;;;;;;;77.60;28.43;;;-0.40;99.90;;;;;;5071039;28;20201;-76
2022/12/10 10:41:04;;;;;;;60.50;23.60;;;-0.30;99.90;;;;;;5067046;28;20201;-75
2022/12/10 10:43:41;;;;;;;62.30;25.60;;;-0.30;99.90;;;;;;5073381;28;20186;-79
2022/12/10 10:46:20;;;;;;;66.20;25.50;;;-0.30;99.90;;;;;;5074194;28;20637;-75
2022/12/10 10:48:46;;;;;;;62.10;24.47;;;-0.30;99.90;;;;;;5071413;28;20182;-78
2022/12/10 10:51:12;;;;;;;56.50;22.83;;;-0.30;99.90;;;;;;5070433;28;20219;-75
2022/12/10 10:53:49;;;;;;;58.20;22.70;;;-0.20;99.90;;;;;;5069499;28;20590;-76
2022/12/10 10:56:18;;;;;;;49.57;20.80;;;-0.20;99.90;;;;;;5073555;28;20209;-76
2022/12/10 10:59:19;;;;;;;49.50;21.83;;;-0.20;99.90;;;;;;5073367;28;20186;-75
2022/12/10 11:01:51;;;;;;;47.57;20.77;;;-0.20;99.90;;;;;;5066981;28;20209;-75
2022/12/10 11:04:24;;;;;;;57.53;22.53;;;-0.20;99.90;;;;;;5064847;28;20262;-79
2022/12/10 11:06:54;;;;;;;55.73;23.13;;;-0.20;99.90;;;;;;5072311;28;20646;-75
2022/12/10 11:09:24;;;;;;;55.88;24.20;;;-0.10;99.90;;;;;;5072705;28;20182;-76
2022/12/10 11:11:57;;;;;;;56.80;23.80;;;-0.10;99.90;;;;;;5055976;28;20203;-78
2022/12/10 11:14:29;;;;;;;59.83;24.20;;;-0.10;99.90;;;;;;5071216;28;20178;-75
2022/12/10 11:17:10;;;;;;;59.37;24.13;;;-0.10;99.90;;;;;;5074650;28;20205;-75
2022/12/10 11:19:43;;;;;;;63.90;24.87;;;-0.10;99.90;;;;;;5074060;28;20217;-75
2022/12/10 11:22:23;;;;;;;66.27;26.27;;;-0.10;99.90;;;;;;5070433;28;20724;-74
2022/12/10 11:24:50;;;;;;;56.53;21.00;;;0.00;99.90;;;;;;5065976;28;20218;-77
2022/12/10 11:27:36;;;;;;;55.53;24.40;;;0.00;99.90;;;;;;5074385;28;20174;-76
2022/12/10 11:30:04;;;;;;;56.30;23.53;;;0.00;99.90;;;;;;5058285;28;20233;-78
2022/12/10 11:32:44;;;;;;;55.77;23.87;;;0.00;99.90;;;;;;5069146;28;20271;-81
2022/12/10 11:35:25;;;;;;;45.42;19.85;;;0.00;99.90;;;;;;5070867;28;20175;-77
2022/12/10 11:38:00;;;;;;;49.83;21.47;;;0.00;99.90;;;;;;5072434;28;20175;-83
2022/12/10 11:40:38;;;;;;;54.15;21.45;;;0.00;99.90;;;;;;5084594;28;20527;-84
2022/12/10 11:43:39;;;;;;;49.30;21.30;;;0.10;99.90;;;;;;5072971;28;20177;-82
2022/12/10 11:46:26;;;;;;;46.23;20.70;;;0.10;99.90;;;;;;5065062;28;20287;-81
2022/12/10 11:49:03;;;;;;;52.03;22.08;;;0.10;99.90;;;;;;5068598;28;20179;-83
2022/12/10 11:51:55;;;;;;;50.63;22.77;;;0.10;99.90;;;;;;5063613;28;20194;-84
2022/12/10 11:54:45;;;;;;;52.25;21.77;;;0.10;99.90;;;;;;5077064;28;20277;-81
2022/12/10 11:57:30;;;;;;;54.60;22.77;;;0.10;99.90;;;;;;5074317;28;20162;-80
2022/12/10 12:00:01;;;;;;;56.87;23.77;;;0.20;99.90;;;;;;5072295;28;20178;-79
2022/12/10 12:02:42;;;;;;;55.93;23.83;;;0.20;99.90;;;;;;5059121;28;20244;-82
2022/12/10 12:05:18;;;;;;;61.63;23.77;;;0.20;99.90;;;;;;5072725;28;20249;-79
2022/12/10 12:07:53;;;;;;;58.27;25.17;;;0.20;99.90;;;;;;5090527;28;20215;-81
2022/12/10 12:10:21;;;;;;;62.20;25.43;;;0.20;99.90;;;;;;5054673;28;20602;-81
2022/12/10 12:12:58;;;;;;;58.20;25.70;;;0.20;99.90;;;;;;5062730;28;20190;-84
2022/12/10 12:15:29;;;;;;;60.80;24.85;;;0.20;99.90;;;;;;5071099;28;20178;-79
2022/12/10 12:18:10;;;;;;;59.00;24.70;;;0.20;99.90;;;;;;5072835;28;20256;-79
2022/12/10 12:21:08;;;;;;;56.97;25.10;;;0.20;99.90;;;;;;5069035;28;20201;-80
2022/12/10 12:23:55;;;;;;;56.47;23.67;;;0.20;99.90;;;;;;5061444;28;20218;-79
2022/12/10 12:26:32;;;;;;;58.40;23.93;;;0.20;99.90;;;;;;5066983;28;20179;-80
2022/12/10 12:29:19;;;;;;;64.80;24.23;;;0.20;99.90;;;;;;5058610;28;20238;-78
2022/12/10 12:31:54;;;;;;;61.40;23.80;;;0.20;99.90;;;;;;5071652;28;20487;-80
2022/12/10 12:34:28;;;;;;;69.80;29.13;;;0.30;99.90;;;;;;5077032;28;20189;-77
2022/12/10 12:36:55;;;;;;;57.58;22.98;;;0.30;99.90;;;;;;5078834;28;20258;-79
2022/12/10 12:39:43;;;;;;;64.10;24.83;;;0.30;99.90;;;;;;5069591;28;20197;-82
2022/12/10 12:42:12;;;;;;;61.27;23.70;;;0.30;99.90;;;;;;5072357;28;20183;-78
2022/12/10 12:44:56;;;;;;;72.63;24.17;;;0.40;99.90;;;;;;5076006;28;20179;-80
2022/12/10 12:48:16;;;;;;;67.67;28.03;;;0.30;99.90;;;;;;5070283;28;20185;-80
2022/12/10 12:51:03;;;;;;;65.50;25.63;;;0.30;99.90;;;;;;5028803;28;20242;-79
2022/12/10 12:53:28;;;;;;;63.67;26.23;;;0.30;99.90;;;;;;5054059;28;20325;-80
2022/12/10 12:55:58;;;;;;;69.60;27.33;;;0.30;99.90;;;;;;5063932;28;20703;-85
2022/12/10 12:58:36;;;;;;;60.33;26.27;;;0.30;99.90;;;;;;5067877;28;20251;-80